This demonstration page uses our WeatherBlox Daily Observations layout. Learn more.

36.17497, -115.13722

Hourly Observations for June 16, 2018

Temp ( °F °C ) Dew Point ( °F °C ) Humidity (%) Winds ( mph kmh ) Pressure ( in mb ) Visibility ( mi km ) Precip ( " mm )
12:53 am 00:53 Clear 84 28.9 48 8.9 29 29 SSW 15 24 29.56 1001 10 16.09344 0 0
1:53 am 01:53 Clear 83 28.3 50 10 32 32 S 13 20 29.59 1002 10 16.09344 0 0
2:53 am 02:53 Clear 82 27.8 50 10 33 33 S 14 22 29.56 1001 10 16.09344 0 0
3:53 am 03:53 Clear 81 27.2 44 6.7 27 27 SSW 15 24 29.56 1001 10 16.09344 0 0
4:53 am 04:53 Clear 79 26.1 45 7.2 30 30 S 13 20 29.59 1002 10 16.09344 0 0
5:53 am 05:53 Sunny 79 26.1 46 7.8 31 31 S 9 15 29.59 1002 10 16.09344 0 0
6:53 am 06:53 Sunny 80 26.7 47 8.3 31 31 S 13 20 29.59 1002 10 16.09344 0 0
7:53 am 07:53 Sunny 83 28.3 43 6.1 24 24 S 14 22 29.62 1003 10 16.09344 0 0
8:53 am 08:53 Sunny 86 30 45 7.2 24 24 S 22 35 29.62 1003 10 16.09344 0 0
9:53 am 09:53 Sunny 88 31.1 45 7.2 22 22 SSW 16 26 29.59 1002 10 16.09344 0 0
10:53 am 10:53 Sunny 90 32.2 40 4.4 17 17 S 16 26 29.59 1002 10 16.09344 0 0
11:53 am 11:53 Sunny 92 33.3 36 2.2 14 14 SW 16 26 29.56 1001 10 16.09344 0 0
12:53 pm 12:53 Sunny 94 34.4 40 4.4 15 15 S 17 28 29.56 1001 10 16.09344 0 0
1:53 pm 13:53 Sunny 95 35 36 2.2 13 13 SW 21 33 29.53 1000 10 16.09344 0 0
2:53 pm 14:53 Sunny 96 35.6 35 1.7 12 12 SW 18 30 29.53 1000 10 16.09344 0 0
3:53 pm 15:53 Sunny 96 35.6 38 3.3 13 13 SSW 22 35 32.45 1099 10 16.09344 0 0
4:53 pm 16:53 Sunny 95 35 37 2.8 13 13 SW 21 33 32.45 1099 10 16.09344 0 0
5:53 pm 17:53 Sunny 95 35 33 0.6 11 11 SW 25 41 32.45 1099 10 16.09344 0 0
6:53 pm 18:53 Sunny 94 34.4 37 2.8 14 14 SSW 17 28 32.45 1099 10 16.09344 0 0
7:53 pm 19:53 Sunny 91 32.8 37 2.8 15 15 SSW 15 24 32.45 1099 10 16.09344 0 0
8:53 pm 20:53 Clear 89 31.7 31 -0.6 12 12 S 21 33 29.53 1000 10 16.09344 0 0
9:53 pm 21:53 Clear 86 30 29 -1.7 13 13 S 18 30 29.56 1001 10 16.09344 0 0
10:53 pm 22:53 Clear 85 29.4 32 0 15 15 SSW 16 26 29.59 1002 10 16.09344 0 0
11:53 pm 23:53 Clear 83 28.3 35 1.7 18 18 SSW 14 22 29.62 1003 10 16.09344 0 0

Powered by AerisWeather